Time,TemperatureF,DewpointF,PressureIn,WindDirection,WindDirectionDegrees,WindSpeedMPH,WindSpeedGustMPH,Humidity,HourlyPrecipIn,Conditions,Clouds,dailyrainin,SoftwareType,DateUTC
2013-09-18 00:00:00,43.6,42.5,30.28,ESE,113,0.0,0.0,96,0.00,,,0.00,Wunderground v.1.13,2013-09-18 04:00:00,
2013-09-18 00:01:00,43.6,42.5,30.27,ESE,113,0.0,0.0,96,0.00,,,0.00,Wunderground v.1.13,2013-09-18 04:01:00,
2013-09-18 00:06:00,43.5,42.4,30.28,ESE,113,0.0,0.0,96,0.00,,,0.00,Wunderground v.1.13,2013-09-18 04:06:00,
2013-09-18 00:12:00,43.5,42.4,30.27,ESE,113,0.0,0.0,96,0.00,,,0.00,Wunderground v.1.13,2013-09-18 04:12:00,
2013-09-18 00:17:00,43.3,42.2,30.27,ESE,113,0.0,0.0,96,0.00,,,0.00,Wunderground v.1.13,2013-09-18 04:17:00,
2013-09-18 00:22:00,43.2,42.1,30.28,ESE,113,0.0,0.0,96,0.00,,,0.00,Wunderground v.1.13,2013-09-18 04:22:00,
2013-09-18 00:26:00,43.2,42.1,30.27,ESE,113,0.0,0.0,96,0.00,,,0.00,Wunderground v.1.13,2013-09-18 04:26:00,
2013-09-18 00:31:00,43.0,41.9,30.27,ESE,113,0.0,0.0,96,0.00,,,0.00,Wunderground v.1.13,2013-09-18 04:31:00,
2013-09-18 00:36:00,42.7,41.6,30.27,ESE,113,0.0,0.0,96,0.00,,,0.00,Wunderground v.1.13,2013-09-18 04:36:00,
2013-09-18 00:41:00,42.7,41.6,30.27,ESE,113,0.0,0.0,96,0.00,,,0.00,Wunderground v.1.13,2013-09-18 04:41:00,
2013-09-18 00:46:00,42.7,41.6,30.27,ESE,113,0.0,0.0,96,0.00,,,0.00,Wunderground v.1.13,2013-09-18 04:46:00,
2013-09-18 00:51:00,42.7,41.6,30.27,ESE,113,0.0,0.0,96,0.00,,,0.00,Wunderground v.1.13,2013-09-18 04:51:00,
2013-09-18 00:56:00,42.7,41.6,30.26,ESE,113,0.0,0.0,96,0.00,,,0.00,Wunderground v.1.13,2013-09-18 04:56:00,
2013-09-18 01:02:00,42.4,41.3,30.26,ESE,113,0.0,0.0,96,0.00,,,0.00,Wunderground v.1.13,2013-09-18 05:02:00,
2013-09-18 01:07:00,42.4,41.3,30.26,ESE,113,0.0,0.0,96,0.00,,,0.00,Wunderground v.1.13,2013-09-18 05:07:00,
2013-09-18 01:13:00,42.6,41.5,30.26,ESE,113,0.0,0.0,96,0.00,,,0.00,Wunderground v.1.13,2013-09-18 05:13:00,
2013-09-18 01:19:00,42.6,41.5,30.26,ESE,113,0.0,0.0,96,0.00,,,0.00,Wunderground v.1.13,2013-09-18 05:19:00,
2013-09-18 01:25:00,42.5,41.4,30.26,ESE,113,0.0,0.0,96,0.00,,,0.00,Wunderground v.1.13,2013-09-18 05:25:00,
2013-09-18 01:31:00,42.4,41.3,30.26,ESE,113,0.0,0.0,96,0.00,,,0.00,Wunderground v.1.13,2013-09-18 05:31:00,
2013-09-18 01:37:00,42.3,41.2,30.26,ESE,113,0.0,0.0,96,0.00,,,0.00,Wunderground v.1.13,2013-09-18 05:37:00,
2013-09-18 01:43:00,42.3,41.2,30.26,ESE,113,0.0,0.0,96,0.00,,,0.00,Wunderground v.1.13,2013-09-18 05:43:00,
2013-09-18 01:44:00,42.3,41.2,30.26,ESE,113,0.0,0.0,96,0.00,,,0.00,Wunderground v.1.13,2013-09-18 05:44:00,
2013-09-18 01:50:00,42.6,41.5,30.26,ESE,113,0.0,0.0,96,0.00,,,0.00,Wunderground v.1.13,2013-09-18 05:50:00,
2013-09-18 01:56:00,42.6,41.5,30.26,ESE,113,0.0,0.0,96,0.00,,,0.00,Wunderground v.1.13,2013-09-18 05:56:00,
2013-09-18 02:02:00,42.7,41.6,30.26,ESE,113,0.0,0.0,96,0.00,,,0.00,Wunderground v.1.13,2013-09-18 06:02:00,
2013-09-18 02:08:00,42.7,41.6,30.26,ESE,113,0.0,0.0,96,0.00,,,0.00,Wunderground v.1.13,2013-09-18 06:08:00,
2013-09-18 02:14:00,42.7,41.6,30.26,ESE,113,0.0,0.0,96,0.00,,,0.00,Wunderground v.1.13,2013-09-18 06:14:00,
2013-09-18 02:19:00,42.5,41.4,30.26,ESE,113,0.0,0.0,96,0.00,,,0.00,Wunderground v.1.13,2013-09-18 06:19:00,
2013-09-18 02:25:00,42.5,41.4,30.26,ESE,113,0.0,0.0,96,0.00,,,0.00,Wunderground v.1.13,2013-09-18 06:25:00,
2013-09-18 02:31:00,42.6,41.8,30.26,ESE,113,0.0,0.0,97,0.00,,,0.00,Wunderground v.1.13,2013-09-18 06:31:00,
2013-09-18 02:37:00,42.6,41.8,30.26,ESE,113,0.0,0.0,97,0.00,,,0.00,Wunderground v.1.13,2013-09-18 06:37:00,
2013-09-18 02:42:00,42.5,41.7,30.26,ESE,113,0.0,0.0,97,0.00,,,0.00,Wunderground v.1.13,2013-09-18 06:42:00,
2013-09-18 02:48:00,42.7,41.9,30.26,ESE,113,0.0,0.0,97,0.00,,,0.00,Wunderground v.1.13,2013-09-18 06:48:00,
2013-09-18 02:53:00,42.7,41.9,30.26,ESE,113,0.0,0.0,97,0.00,,,0.00,Wunderground v.1.13,2013-09-18 06:53:00,
2013-09-18 02:59:00,42.6,41.8,30.26,ESE,113,0.0,0.0,97,0.00,,,0.00,Wunderground v.1.13,2013-09-18 06:59:00,
2013-09-18 03:04:00,42.5,41.7,30.26,ESE,113,0.0,0.0,97,0.00,,,0.00,Wunderground v.1.13,2013-09-18 07:04:00,
2013-09-18 03:09:00,42.3,41.2,30.26,ESE,113,0.0,0.0,96,0.00,,,0.00,Wunderground v.1.13,2013-09-18 07:09:00,
2013-09-18 03:14:00,42.2,41.4,30.26,ESE,113,0.0,0.0,97,0.00,,,0.00,Wunderground v.1.13,2013-09-18 07:14:00,
2013-09-18 03:19:00,42.1,41.3,30.26,ESE,113,0.0,0.0,97,0.00,,,0.00,Wunderground v.1.13,2013-09-18 07:19:00,
2013-09-18 03:24:00,42.1,41.3,30.26,ESE,113,0.0,0.0,97,0.00,,,0.00,Wunderground v.1.13,2013-09-18 07:24:00,
2013-09-18 03:29:00,41.8,41.0,30.26,ESE,113,0.0,0.0,97,0.00,,,0.00,Wunderground v.1.13,2013-09-18 07:29:00,
2013-09-18 03:34:00,41.9,41.1,30.26,ESE,113,0.0,0.0,97,0.00,,,0.00,Wunderground v.1.13,2013-09-18 07:34:00,
2013-09-18 03:39:00,41.9,41.1,30.26,ESE,113,0.0,0.0,97,0.00,,,0.00,Wunderground v.1.13,2013-09-18 07:39:00,
2013-09-18 03:44:00,41.9,41.1,30.25,ESE,113,0.0,0.0,97,0.00,,,0.00,Wunderground v.1.13,2013-09-18 07:44:00,
2013-09-18 03:49:00,42.0,41.2,30.26,ESE,113,0.0,0.0,97,0.00,,,0.00,Wunderground v.1.13,2013-09-18 07:49:00,
2013-09-18 03:54:00,41.8,41.0,30.25,ESE,113,0.0,0.0,97,0.00,,,0.00,Wunderground v.1.13,2013-09-18 07:54:00,
2013-09-18 03:59:00,41.7,40.9,30.25,ESE,113,0.0,0.0,97,0.00,,,0.00,Wunderground v.1.13,2013-09-18 07:59:00,
2013-09-18 04:04:00,41.5,40.7,30.25,ESE,113,0.0,0.0,97,0.00,,,0.00,Wunderground v.1.13,2013-09-18 08:04:00,
2013-09-18 04:09:00,41.5,40.7,30.25,ESE,113,0.0,0.0,97,0.00,,,0.00,Wunderground v.1.13,2013-09-18 08:09:00,
2013-09-18 04:14:00,41.4,40.6,30.25,ESE,113,0.0,0.0,97,0.00,,,0.00,Wunderground v.1.13,2013-09-18 08:14:00,
2013-09-18 04:19:00,41.4,40.6,30.25,ESE,113,0.0,0.0,97,0.00,,,0.00,Wunderground v.1.13,2013-09-18 08:19:00,
2013-09-18 04:24:00,41.5,40.7,30.25,ESE,113,0.0,0.0,97,0.00,,,0.00,Wunderground v.1.13,2013-09-18 08:24:00,
2013-09-18 04:29:00,41.6,40.8,30.25,ESE,113,0.0,0.0,97,0.00,,,0.00,Wunderground v.1.13,2013-09-18 08:29:00,
2013-09-18 04:34:00,41.5,40.7,30.25,ESE,113,0.0,0.0,97,0.00,,,0.00,Wunderground v.1.13,2013-09-18 08:34:00,
2013-09-18 04:39:00,41.4,40.6,30.25,ESE,113,0.0,0.0,97,0.00,,,0.00,Wunderground v.1.13,2013-09-18 08:39:00,
2013-09-18 04:44:00,41.3,40.5,30.25,ESE,113,0.0,0.0,97,0.00,,,0.00,Wunderground v.1.13,2013-09-18 08:44:00,
2013-09-18 04:49:00,41.3,40.5,30.25,ESE,113,0.0,0.0,97,0.00,,,0.00,Wunderground v.1.13,2013-09-18 08:49:00,
2013-09-18 04:54:00,41.3,40.5,30.25,ESE,113,0.0,0.0,97,0.00,,,0.00,Wunderground v.1.13,2013-09-18 08:54:00,
2013-09-18 04:59:00,41.3,40.5,30.25,ESE,113,0.0,0.0,97,0.00,,,0.00,Wunderground v.1.13,2013-09-18 08:59:00,
2013-09-18 05:04:00,41.2,40.4,30.25,ESE,113,0.0,0.0,97,0.00,,,0.00,Wunderground v.1.13,2013-09-18 09:04:00,
2013-09-18 05:09:00,41.1,40.3,30.25,ESE,113,0.0,0.0,97,0.00,,,0.00,Wunderground v.1.13,2013-09-18 09:09:00,
2013-09-18 05:14:00,41.0,40.2,30.25,ESE,113,0.0,0.0,97,0.00,,,0.00,Wunderground v.1.13,2013-09-18 09:14:00,
2013-09-18 05:19:00,40.9,40.1,30.25,ESE,113,0.0,0.0,97,0.00,,,0.00,Wunderground v.1.13,2013-09-18 09:19:00,
2013-09-18 05:24:00,40.9,40.1,30.25,ESE,113,0.0,0.0,97,0.00,,,0.00,Wunderground v.1.13,2013-09-18 09:24:00,
2013-09-18 05:29:00,40.8,40.0,30.25,ESE,113,0.0,0.0,97,0.00,,,0.00,Wunderground v.1.13,2013-09-18 09:29:00,
2013-09-18 05:34:00,40.8,40.0,30.25,ESE,113,0.0,0.0,97,0.00,,,0.00,Wunderground v.1.13,2013-09-18 09:34:00,
2013-09-18 05:39:00,40.8,40.0,30.25,ESE,113,0.0,0.0,97,0.00,,,0.00,Wunderground v.1.13,2013-09-18 09:39:00,
2013-09-18 05:44:00,40.9,40.1,30.25,ESE,113,0.0,0.0,97,0.00,,,0.00,Wunderground v.1.13,2013-09-18 09:44:00,
2013-09-18 05:49:00,40.6,39.8,30.25,ESE,113,0.0,0.0,97,0.00,,,0.00,Wunderground v.1.13,2013-09-18 09:49:00,
2013-09-18 05:54:00,40.5,39.7,30.25,ESE,113,0.0,0.0,97,0.00,,,0.00,Wunderground v.1.13,2013-09-18 09:54:00,
2013-09-18 05:59:00,40.5,39.7,30.25,ESE,113,0.0,0.0,97,0.00,,,0.00,Wunderground v.1.13,2013-09-18 09:59:00,
2013-09-18 06:04:00,40.5,39.7,30.25,ESE,113,0.0,0.0,97,0.00,,,0.00,Wunderground v.1.13,2013-09-18 10:04:00,
2013-09-18 06:09:00,40.3,39.5,30.25,ESE,113,0.0,0.0,97,0.00,,,0.00,Wunderground v.1.13,2013-09-18 10:09:00,
2013-09-18 06:14:00,40.3,39.5,30.25,ESE,113,0.0,0.0,97,0.00,,,0.00,Wunderground v.1.13,2013-09-18 10:14:00,
2013-09-18 06:19:00,40.2,39.4,30.26,ESE,113,0.0,0.0,97,0.00,,,0.00,Wunderground v.1.13,2013-09-18 10:19:00,
2013-09-18 06:24:00,40.2,39.4,30.26,ESE,113,0.0,0.0,97,0.00,,,0.00,Wunderground v.1.13,2013-09-18 10:24:00,
2013-09-18 06:29:00,40.1,39.3,30.26,ESE,113,0.0,0.0,97,0.00,,,0.00,Wunderground v.1.13,2013-09-18 10:29:00,
2013-09-18 06:34:00,40.0,39.2,30.26,ESE,113,0.0,0.0,97,0.00,,,0.00,Wunderground v.1.13,2013-09-18 10:34:00,
2013-09-18 06:39:00,40.0,39.2,30.26,ESE,113,0.0,0.0,97,0.00,,,0.00,Wunderground v.1.13,2013-09-18 10:39:00,
2013-09-18 06:44:00,40.0,39.2,30.26,ESE,113,0.0,0.0,97,0.00,,,0.00,Wunderground v.1.13,2013-09-18 10:44:00,
2013-09-18 06:49:00,40.0,39.2,30.26,ESE,113,0.0,0.0,97,0.00,,,0.00,Wunderground v.1.13,2013-09-18 10:49:00,
2013-09-18 06:54:00,39.8,39.0,30.26,ESE,113,0.0,0.0,97,0.00,,,0.00,Wunderground v.1.13,2013-09-18 10:54:00,
2013-09-18 06:59:00,39.7,38.9,30.26,ESE,113,0.0,0.0,97,0.00,,,0.00,Wunderground v.1.13,2013-09-18 10:59:00,
2013-09-18 07:04:00,39.8,39.0,30.27,ESE,113,0.0,0.0,97,0.00,,,0.00,Wunderground v.1.13,2013-09-18 11:04:00,
2013-09-18 07:09:00,39.9,39.1,30.26,ESE,113,0.0,0.0,97,0.00,,,0.00,Wunderground v.1.13,2013-09-18 11:09:00,
2013-09-18 07:14:00,40.1,39.3,30.27,ESE,113,0.0,0.0,97,0.00,,,0.00,Wunderground v.1.13,2013-09-18 11:14:00,
2013-09-18 07:19:00,40.3,39.5,30.26,ESE,113,0.0,0.0,97,0.00,,,0.00,Wunderground v.1.13,2013-09-18 11:19:00,
2013-09-18 07:24:00,40.4,39.6,30.26,ESE,113,0.0,0.0,97,0.00,,,0.00,Wunderground v.1.13,2013-09-18 11:24:00,
2013-09-18 07:29:00,40.4,39.6,30.26,ESE,113,0.0,0.0,97,0.00,,,0.00,Wunderground v.1.13,2013-09-18 11:29:00,
2013-09-18 07:34:00,40.5,39.7,30.26,ESE,113,0.0,0.0,97,0.00,,,0.00,Wunderground v.1.13,2013-09-18 11:34:00,
2013-09-18 07:39:00,40.3,39.5,30.26,ESE,113,0.0,0.0,97,0.00,,,0.00,Wunderground v.1.13,2013-09-18 11:39:00,
2013-09-18 07:44:00,40.7,39.9,30.26,ESE,113,0.0,0.0,97,0.00,,,0.00,Wunderground v.1.13,2013-09-18 11:44:00,
2013-09-18 07:49:00,41.1,40.6,30.26,ESE,113,0.0,0.0,98,0.00,,,0.00,Wunderground v.1.13,2013-09-18 11:49:00,
2013-09-18 07:54:00,41.6,41.1,30.26,ESE,113,0.0,0.0,98,0.00,,,0.00,Wunderground v.1.13,2013-09-18 11:54:00,
2013-09-18 07:59:00,42.1,41.6,30.26,ESE,113,0.0,0.0,98,0.00,,,0.00,Wunderground v.1.13,2013-09-18 11:59:00,
2013-09-18 08:04:00,42.4,41.9,30.26,ESE,113,0.0,0.0,98,0.00,,,0.00,Wunderground v.1.13,2013-09-18 12:04:00,
2013-09-18 08:09:00,42.7,42.2,30.27,ESE,113,0.0,0.0,98,0.00,,,0.00,Wunderground v.1.13,2013-09-18 12:09:00,
2013-09-18 08:14:00,43.3,42.8,30.26,ESE,113,0.0,0.0,98,0.00,,,0.00,Wunderground v.1.13,2013-09-18 12:14:00,
2013-09-18 08:19:00,44.1,43.6,30.26,ESE,113,0.0,0.0,98,0.00,,,0.00,Wunderground v.1.13,2013-09-18 12:19:00,
2013-09-18 08:24:00,44.6,44.1,30.26,ESE,113,0.0,0.0,98,0.00,,,0.00,Wunderground v.1.13,2013-09-18 12:24:00,
2013-09-18 08:29:00,45.2,44.7,30.26,ESE,113,0.0,0.0,98,0.00,,,0.00,Wunderground v.1.13,2013-09-18 12:29:00,
2013-09-18 08:34:00,45.8,45.3,30.26,ESE,113,0.0,0.0,98,0.00,,,0.00,Wunderground v.1.13,2013-09-18 12:34:00,
2013-09-18 08:39:00,46.2,45.7,30.27,ESE,113,0.0,0.0,98,0.00,,,0.00,Wunderground v.1.13,2013-09-18 12:39:00,
2013-09-18 08:44:00,46.8,46.3,30.27,ESE,113,0.0,0.0,98,0.00,,,0.00,Wunderground v.1.13,2013-09-18 12:44:00,
2013-09-18 08:49:00,47.3,46.8,30.27,ESE,113,0.0,0.0,98,0.00,,,0.00,Wunderground v.1.13,2013-09-18 12:49:00,
2013-09-18 08:54:00,48.3,47.8,30.27,ESE,113,0.0,0.0,98,0.00,,,0.00,Wunderground v.1.13,2013-09-18 12:54:00,
2013-09-18 08:59:00,49.0,48.5,30.27,ESE,113,0.0,0.0,98,0.00,,,0.00,Wunderground v.1.13,2013-09-18 12:59:00,
2013-09-18 09:04:00,49.2,48.7,30.26,ESE,113,0.0,0.0,98,0.00,,,0.00,Wunderground v.1.13,2013-09-18 13:04:00,
2013-09-18 09:09:00,49.6,49.1,30.26,ESE,113,0.0,0.0,98,0.00,,,0.00,Wunderground v.1.13,2013-09-18 13:09:00,
2013-09-18 09:14:00,50.4,49.9,30.26,ESE,113,0.0,0.0,98,0.00,,,0.00,Wunderground v.1.13,2013-09-18 13:14:00,
2013-09-18 09:19:00,50.8,50.0,30.26,ESE,113,0.0,0.0,97,0.00,,,0.00,Wunderground v.1.13,2013-09-18 13:19:00,
2013-09-18 09:24:00,51.9,51.1,30.25,ESE,113,0.0,0.0,97,0.00,,,0.00,Wunderground v.1.13,2013-09-18 13:24:00,
2013-09-18 09:29:00,52.9,51.8,30.25,ESE,113,0.0,0.0,96,0.00,,,0.00,Wunderground v.1.13,2013-09-18 13:29:00,
2013-09-18 09:35:00,54.0,51.7,30.25,ESE,113,0.0,0.0,92,0.00,,,0.00,Wunderground v.1.13,2013-09-18 13:35:00,
2013-09-18 09:40:00,54.8,51.0,30.25,ESE,113,0.0,0.0,87,0.00,,,0.00,Wunderground v.1.13,2013-09-18 13:40:00,
2013-09-18 09:45:00,55.5,51.1,30.25,ESE,113,0.0,0.0,85,0.00,,,0.00,Wunderground v.1.13,2013-09-18 13:45:00,
2013-09-18 09:50:00,55.8,51.4,30.25,ESE,113,0.0,0.0,85,0.00,,,0.00,Wunderground v.1.13,2013-09-18 13:50:00,
2013-09-18 09:55:00,56.5,51.4,30.25,ESE,113,0.0,0.0,83,0.00,,,0.00,Wunderground v.1.13,2013-09-18 13:55:00,
2013-09-18 10:00:00,57.2,52.1,30.25,ESE,113,0.0,0.0,83,0.00,,,0.00,Wunderground v.1.13,2013-09-18 14:00:00,
2013-09-18 10:05:00,57.8,51.3,30.25,ESE,113,0.0,0.0,79,0.00,,,0.00,Wunderground v.1.13,2013-09-18 14:05:00,
2013-09-18 10:10:00,58.7,52.5,30.25,ESE,113,0.0,0.0,80,0.00,,,0.00,Wunderground v.1.13,2013-09-18 14:10:00,
2013-09-18 10:15:00,59.1,52.2,30.24,ESE,113,0.0,0.0,78,0.00,,,0.00,Wunderground v.1.13,2013-09-18 14:15:00,
2013-09-18 10:20:00,59.6,52.0,30.24,ESE,113,0.0,0.0,76,0.00,,,0.00,Wunderground v.1.13,2013-09-18 14:20:00,
2013-09-18 10:25:00,60.5,52.2,30.24,ESE,113,0.0,0.0,74,0.00,,,0.00,Wunderground v.1.13,2013-09-18 14:25:00,
2013-09-18 10:30:00,60.9,52.6,30.24,ESE,113,0.0,0.0,74,0.00,,,0.00,Wunderground v.1.13,2013-09-18 14:30:00,
2013-09-18 10:35:00,61.5,52.8,30.24,ESE,113,0.0,0.0,73,0.00,,,0.00,Wunderground v.1.13,2013-09-18 14:35:00,
2013-09-18 10:40:00,62.2,53.1,30.24,ESE,113,0.0,0.0,72,0.00,,,0.00,Wunderground v.1.13,2013-09-18 14:40:00,
2013-09-18 10:45:00,62.5,52.6,30.23,ESE,113,0.0,0.0,70,0.00,,,0.00,Wunderground v.1.13,2013-09-18 14:45:00,
2013-09-18 10:50:00,63.0,53.1,30.23,ESE,113,0.0,0.0,70,0.00,,,0.00,Wunderground v.1.13,2013-09-18 14:50:00,
2013-09-18 10:55:00,63.5,52.3,30.23,ESE,113,0.0,0.0,67,0.00,,,0.00,Wunderground v.1.13,2013-09-18 14:55:00,
2013-09-18 11:00:00,64.0,53.2,30.23,ESE,113,0.0,0.0,68,0.00,,,0.00,Wunderground v.1.13,2013-09-18 15:00:00,
2013-09-18 11:05:00,64.9,54.1,30.23,ESE,113,0.0,0.0,68,0.00,,,0.00,Wunderground v.1.13,2013-09-18 15:05:00,
2013-09-18 11:10:00,65.4,53.7,30.23,ESE,113,0.0,0.0,66,0.00,,,0.00,Wunderground v.1.13,2013-09-18 15:10:00,
2013-09-18 11:15:00,64.8,52.8,30.23,ESE,113,0.0,0.0,65,0.00,,,0.00,Wunderground v.1.13,2013-09-18 15:15:00,
2013-09-18 11:20:00,64.7,53.5,30.23,ESE,113,0.0,0.0,67,0.00,,,0.00,Wunderground v.1.13,2013-09-18 15:20:00,
2013-09-18 11:25:00,65.1,54.7,30.23,ESE,113,0.0,0.0,69,0.00,,,0.00,Wunderground v.1.13,2013-09-18 15:25:00,
2013-09-18 11:30:00,65.6,53.5,30.23,ESE,113,0.0,0.0,65,0.00,,,0.00,Wunderground v.1.13,2013-09-18 15:30:00,
2013-09-18 11:35:00,66.1,54.8,30.23,ESE,113,0.0,0.0,67,0.00,,,0.00,Wunderground v.1.13,2013-09-18 15:35:00,
2013-09-18 11:40:00,66.7,52.8,30.23,ESE,113,0.0,0.0,61,0.00,,,0.00,Wunderground v.1.13,2013-09-18 15:40:00,
2013-09-18 11:45:00,67.8,55.2,30.23,ESE,113,0.0,0.0,64,0.00,,,0.00,Wunderground v.1.13,2013-09-18 15:45:00,
2013-09-18 11:50:00,67.3,48.0,30.23,ESE,113,0.0,0.0,50,0.00,,,0.00,Wunderground v.1.13,2013-09-18 15:50:00,
2013-09-18 11:55:00,66.9,48.2,30.22,SSE,159,0.0,0.0,51,0.00,,,0.00,Wunderground v.1.13,2013-09-18 15:55:00,
2013-09-18 12:00:00,67.0,48.8,30.22,SSE,159,0.0,0.0,52,0.00,,,0.00,Wunderground v.1.13,2013-09-18 16:00:00,
2013-09-18 12:01:00,67.0,48.3,30.22,SSE,159,0.0,0.0,51,0.00,,,0.00,Wunderground v.1.13,2013-09-18 16:01:00,
2013-09-18 12:06:00,67.0,49.3,30.22,SSE,159,0.0,0.0,53,0.00,,,0.00,Wunderground v.1.13,2013-09-18 16:06:00,
2013-09-18 12:11:00,67.1,49.4,30.22,SSE,159,0.0,1.0,53,0.00,,,0.00,Wunderground v.1.13,2013-09-18 16:11:00,
2013-09-18 12:16:00,67.4,49.2,30.21,SSE,159,0.0,0.0,52,0.00,,,0.00,Wunderground v.1.13,2013-09-18 16:16:00,
2013-09-18 12:21:00,67.2,49.5,30.21,SSW,194,0.0,0.0,53,0.00,,,0.00,Wunderground v.1.13,2013-09-18 16:21:00,
2013-09-18 12:26:00,66.4,50.2,30.21,SW,217,0.0,1.0,56,0.00,,,0.00,Wunderground v.1.13,2013-09-18 16:26:00,
2013-09-18 12:31:00,66.5,50.3,30.21,SW,217,0.0,2.0,56,0.00,,,0.00,Wunderground v.1.13,2013-09-18 16:31:00,
2013-09-18 12:36:00,67.0,52.7,30.21,SW,215,0.0,4.0,60,0.00,,,0.00,Wunderground v.1.13,2013-09-18 16:36:00,
2013-09-18 12:41:00,67.3,50.1,30.20,SW,215,0.0,1.0,54,0.00,,,0.00,Wunderground v.1.13,2013-09-18 16:41:00,
2013-09-18 12:46:00,67.5,50.8,30.20,SW,215,1.0,1.0,55,0.00,,,0.00,Wunderground v.1.13,2013-09-18 16:46:00,
2013-09-18 12:51:00,67.8,52.0,30.20,SW,215,0.0,3.0,57,0.00,,,0.00,Wunderground v.1.13,2013-09-18 16:51:00,
2013-09-18 12:57:00,67.4,50.7,30.20,SW,215,0.0,1.0,55,0.00,,,0.00,Wunderground v.1.13,2013-09-18 16:57:00,
2013-09-18 13:02:00,67.2,52.4,30.20,SW,215,0.0,1.0,59,0.00,,,0.00,Wunderground v.1.13,2013-09-18 17:02:00,
2013-09-18 13:07:00,67.5,52.2,30.20,SW,215,0.0,0.0,58,0.00,,,0.00,Wunderground v.1.13,2013-09-18 17:07:00,
2013-09-18 13:12:00,68.3,51.5,30.20,SW,215,0.0,0.0,55,0.00,,,0.00,Wunderground v.1.13,2013-09-18 17:12:00,
2013-09-18 13:17:00,69.3,51.9,30.19,SW,215,0.0,4.0,54,0.00,,,0.00,Wunderground v.1.13,2013-09-18 17:17:00,
2013-09-18 13:22:00,69.4,53.5,30.19,SW,215,0.0,0.0,57,0.00,,,0.00,Wunderground v.1.13,2013-09-18 17:22:00,
2013-09-18 13:27:00,69.6,52.7,30.19,SW,215,1.0,2.0,55,0.00,,,0.00,Wunderground v.1.13,2013-09-18 17:27:00,
2013-09-18 13:32:00,69.2,47.5,30.19,South,178,0.0,3.0,46,0.00,,,0.00,Wunderground v.1.13,2013-09-18 17:32:00,
2013-09-18 13:37:00,69.6,48.5,30.19,South,178,0.0,1.0,47,0.00,,,0.00,Wunderground v.1.13,2013-09-18 17:37:00,
2013-09-18 13:42:00,69.1,47.4,30.18,South,178,0.0,0.0,46,0.00,,,0.00,Wunderground v.1.13,2013-09-18 17:42:00,
2013-09-18 13:47:00,69.1,48.0,30.18,South,177,1.0,2.0,47,0.00,,,0.00,Wunderground v.1.13,2013-09-18 17:47:00,
2013-09-18 13:52:00,70.0,50.5,30.18,South,173,0.0,1.0,50,0.00,,,0.00,Wunderground v.1.13,2013-09-18 17:52:00,
2013-09-18 13:57:00,70.2,47.9,30.17,South,183,0.0,3.0,45,0.00,,,0.00,Wunderground v.1.13,2013-09-18 17:57:00,
2013-09-18 14:02:00,70.4,48.0,30.17,South,183,0.0,0.0,45,0.00,,,0.00,Wunderground v.1.13,2013-09-18 18:02:00,
2013-09-18 14:07:00,70.4,48.0,30.17,SSE,162,0.0,1.0,45,0.00,,,0.00,Wunderground v.1.13,2013-09-18 18:07:00,
2013-09-18 14:12:00,70.0,47.7,30.17,SSE,162,0.0,0.0,45,0.00,,,0.00,Wunderground v.1.13,2013-09-18 18:12:00,
2013-09-18 14:17:00,70.2,50.1,30.17,SSE,162,0.0,0.0,49,0.00,,,0.00,Wunderground v.1.13,2013-09-18 18:17:00,
2013-09-18 14:22:00,70.2,49.0,30.17,SSE,162,0.0,0.0,47,0.00,,,0.00,Wunderground v.1.13,2013-09-18 18:22:00,
2013-09-18 14:27:00,71.3,51.7,30.16,SSE,162,0.0,0.0,50,0.00,,,0.00,Wunderground v.1.13,2013-09-18 18:27:00,
2013-09-18 14:32:00,71.5,52.4,30.16,SSE,162,0.0,0.0,51,0.00,,,0.00,Wunderground v.1.13,2013-09-18 18:32:00,
2013-09-18 14:37:00,71.3,51.7,30.16,NE,39,0.0,8.0,50,0.00,,,0.00,Wunderground v.1.13,2013-09-18 18:37:00,
2013-09-18 14:42:00,71.6,51.4,30.16,NE,54,0.0,4.0,49,0.00,,,0.00,Wunderground v.1.13,2013-09-18 18:42:00,
2013-09-18 14:47:00,71.5,51.3,30.16,NE,55,0.0,1.0,49,0.00,,,0.00,Wunderground v.1.13,2013-09-18 18:47:00,
2013-09-18 14:52:00,71.5,52.4,30.16,NE,55,0.0,1.0,51,0.00,,,0.00,Wunderground v.1.13,2013-09-18 18:52:00,
2013-09-18 14:57:00,71.7,52.1,30.16,ENE,67,0.0,1.0,50,0.00,,,0.00,Wunderground v.1.13,2013-09-18 18:57:00,
2013-09-18 15:02:00,71.5,51.9,30.15,East,83,0.0,1.0,50,0.00,,,0.00,Wunderground v.1.13,2013-09-18 19:02:00,
2013-09-18 15:07:00,71.9,52.2,30.15,ESE,118,0.0,4.0,50,0.00,,,0.00,Wunderground v.1.13,2013-09-18 19:07:00,
2013-09-18 15:12:00,71.5,51.9,30.15,SE,142,0.0,6.0,50,0.00,,,0.00,Wunderground v.1.13,2013-09-18 19:12:00,
2013-09-18 15:17:00,70.6,53.1,30.15,SSE,165,0.0,2.0,54,0.00,,,0.00,Wunderground v.1.13,2013-09-18 19:17:00,
2013-09-18 15:23:00,69.7,52.8,30.15,SSE,165,0.0,1.0,55,0.00,,,0.00,Wunderground v.1.13,2013-09-18 19:23:00,
2013-09-18 15:28:00,69.8,52.4,30.15,South,176,0.0,4.0,54,0.00,,,0.00,Wunderground v.1.13,2013-09-18 19:28:00,
2013-09-18 15:32:00,69.7,52.3,30.15,South,169,0.0,2.0,54,0.00,,,0.00,Wunderground v.1.13,2013-09-18 19:32:00,
2013-09-18 15:38:00,70.1,53.2,30.14,South,169,0.0,0.0,55,0.00,,,0.00,Wunderground v.1.13,2013-09-18 19:38:00,
2013-09-18 15:43:00,70.1,52.7,30.14,South,169,0.0,0.0,54,0.00,,,0.00,Wunderground v.1.13,2013-09-18 19:43:00,
2013-09-18 15:48:00,70.3,51.3,30.14,South,169,0.0,0.0,51,0.00,,,0.00,Wunderground v.1.13,2013-09-18 19:48:00,
2013-09-18 15:53:00,71.1,53.1,30.14,South,169,0.0,0.0,53,0.00,,,0.00,Wunderground v.1.13,2013-09-18 19:53:00,
2013-09-18 15:58:00,71.5,50.8,30.13,South,169,0.0,1.0,48,0.00,,,0.00,Wunderground v.1.13,2013-09-18 19:58:00,
2013-09-18 16:03:00,71.4,51.2,30.13,South,169,0.0,2.0,49,0.00,,,0.00,Wunderground v.1.13,2013-09-18 20:03:00,
2013-09-18 16:08:00,71.5,50.2,30.13,South,190,0.0,3.0,47,0.00,,,0.00,Wunderground v.1.13,2013-09-18 20:08:00,
2013-09-18 16:13:00,71.3,51.7,30.13,South,190,0.0,2.0,50,0.00,,,0.00,Wunderground v.1.13,2013-09-18 20:13:00,
2013-09-18 16:18:00,71.5,50.2,30.13,South,190,0.0,1.0,47,0.00,,,0.00,Wunderground v.1.13,2013-09-18 20:18:00,
2013-09-18 16:23:00,71.7,52.1,30.13,South,190,0.0,0.0,50,0.00,,,0.00,Wunderground v.1.13,2013-09-18 20:23:00,
2013-09-18 16:28:00,71.8,52.7,30.13,South,190,0.0,1.0,51,0.00,,,0.00,Wunderground v.1.13,2013-09-18 20:28:00,
2013-09-18 16:33:00,71.5,49.6,30.13,South,190,0.0,1.0,46,0.00,,,0.00,Wunderground v.1.13,2013-09-18 20:33:00,
2013-09-18 16:38:00,71.6,53.6,30.13,South,190,0.0,0.0,53,0.00,,,0.00,Wunderground v.1.13,2013-09-18 20:38:00,
2013-09-18 16:43:00,71.1,53.1,30.13,South,187,0.0,5.0,53,0.00,,,0.00,Wunderground v.1.13,2013-09-18 20:43:00,
2013-09-18 16:48:00,71.5,54.5,30.13,South,187,2.0,2.0,55,0.00,,,0.00,Wunderground v.1.13,2013-09-18 20:48:00,
2013-09-18 16:53:00,70.7,53.2,30.13,South,173,4.0,5.0,54,0.00,,,0.00,Wunderground v.1.13,2013-09-18 20:53:00,
2013-09-18 16:59:00,69.5,52.1,30.12,South,175,0.0,7.0,54,0.00,,,0.00,Wunderground v.1.13,2013-09-18 20:59:00,
2013-09-18 17:04:00,69.3,52.9,30.12,South,177,0.0,7.0,56,0.00,,,0.00,Wunderground v.1.13,2013-09-18 21:04:00,
2013-09-18 17:09:00,69.9,54.9,30.12,SSE,168,4.0,5.0,59,0.00,,,0.00,Wunderground v.1.13,2013-09-18 21:09:00,
2013-09-18 17:14:00,70.2,55.2,30.12,SSW,194,0.0,7.0,59,0.00,,,0.00,Wunderground v.1.13,2013-09-18 21:14:00,
2013-09-18 17:19:00,70.1,54.6,30.12,South,180,0.0,5.0,58,0.00,,,0.00,Wunderground v.1.13,2013-09-18 21:19:00,
2013-09-18 17:24:00,69.4,53.5,30.13,SSW,200,0.0,5.0,57,0.00,,,0.00,Wunderground v.1.13,2013-09-18 21:24:00,
2013-09-18 17:29:00,69.1,54.6,30.13,SSW,199,0.0,1.0,60,0.00,,,0.00,Wunderground v.1.13,2013-09-18 21:29:00,
2013-09-18 17:34:00,68.9,54.9,30.13,SSW,196,0.0,3.0,61,0.00,,,0.00,Wunderground v.1.13,2013-09-18 21:34:00,
2013-09-18 17:39:00,68.5,54.5,30.12,SSW,204,0.0,7.0,61,0.00,,,0.00,Wunderground v.1.13,2013-09-18 21:39:00,
2013-09-18 17:44:00,67.2,54.2,30.12,SSW,192,0.0,5.0,63,0.00,,,0.00,Wunderground v.1.13,2013-09-18 21:44:00,
2013-09-18 17:49:00,66.3,55.0,30.12,SSW,192,0.0,3.0,67,0.00,,,0.00,Wunderground v.1.13,2013-09-18 21:49:00,
2013-09-18 17:54:00,65.8,54.5,30.12,South,190,0.0,5.0,67,0.00,,,0.00,Wunderground v.1.13,2013-09-18 21:54:00,
2013-09-18 17:59:00,65.2,55.6,30.12,South,189,0.0,1.0,71,0.00,,,0.00,Wunderground v.1.13,2013-09-18 21:59:00,
2013-09-18 18:04:00,65.1,54.7,30.12,South,188,0.0,4.0,69,0.00,,,0.00,Wunderground v.1.13,2013-09-18 22:04:00,
2013-09-18 18:09:00,65.4,54.6,30.12,South,176,0.0,7.0,68,0.00,,,0.00,Wunderground v.1.13,2013-09-18 22:09:00,
2013-09-18 18:14:00,65.6,54.8,30.12,SSE,163,0.0,7.0,68,0.00,,,0.00,Wunderground v.1.13,2013-09-18 22:14:00,
2013-09-18 18:19:00,65.6,54.3,30.12,SSE,151,2.0,8.0,67,0.00,,,0.00,Wunderground v.1.13,2013-09-18 22:19:00,
2013-09-18 18:24:00,65.5,54.2,30.12,SE,144,0.0,8.0,67,0.00,,,0.00,Wunderground v.1.13,2013-09-18 22:24:00,
2013-09-18 18:29:00,65.0,54.2,30.12,SSE,148,1.0,6.0,68,0.00,,,0.00,Wunderground v.1.13,2013-09-18 22:29:00,
2013-09-18 18:34:00,64.6,54.2,30.12,SSE,158,0.0,5.0,69,0.00,,,0.00,Wunderground v.1.13,2013-09-18 22:34:00,
2013-09-18 18:39:00,64.0,54.0,30.12,SE,140,0.0,7.0,70,0.00,,,0.00,Wunderground v.1.13,2013-09-18 22:39:00,
2013-09-18 18:44:00,63.8,54.2,30.12,SE,144,1.0,8.0,71,0.00,,,0.00,Wunderground v.1.13,2013-09-18 22:44:00,
2013-09-18 18:49:00,63.4,53.8,30.12,SSE,153,0.0,4.0,71,0.00,,,0.00,Wunderground v.1.13,2013-09-18 22:49:00,
2013-09-18 18:54:00,63.1,53.2,30.12,SSE,155,6.0,6.0,70,0.00,,,0.00,Wunderground v.1.13,2013-09-18 22:54:00,
2013-09-18 18:59:00,63.1,53.5,30.12,SSW,192,0.0,10.0,71,0.00,,,0.00,Wunderground v.1.13,2013-09-18 22:59:00,
2013-09-18 19:04:00,62.8,53.3,30.12,SSW,192,1.0,3.0,71,0.00,,,0.00,Wunderground v.1.13,2013-09-18 23:04:00,
2013-09-18 19:09:00,62.5,53.3,30.12,SSE,157,0.0,9.0,72,0.00,,,0.00,Wunderground v.1.13,2013-09-18 23:09:00,
2013-09-18 19:14:00,62.3,53.2,30.12,SSE,161,0.0,9.0,72,0.00,,,0.00,Wunderground v.1.13,2013-09-18 23:14:00,
2013-09-18 19:19:00,62.2,53.4,30.12,SSE,160,1.0,6.0,73,0.00,,,0.00,Wunderground v.1.13,2013-09-18 23:19:00,
2013-09-18 19:25:00,61.6,53.6,30.12,SSE,154,0.0,1.0,75,0.00,,,0.00,Wunderground v.1.13,2013-09-18 23:25:00,
2013-09-18 19:30:00,60.9,53.6,30.12,SSE,153,1.0,5.0,77,0.00,,,0.00,Wunderground v.1.13,2013-09-18 23:30:00,
2013-09-18 19:35:00,60.7,53.1,30.12,SSE,159,1.0,1.0,76,0.00,,,0.00,Wunderground v.1.13,2013-09-18 23:35:00,
2013-09-18 19:40:00,60.0,53.8,30.12,SSE,158,0.0,0.0,80,0.00,,,0.00,Wunderground v.1.13,2013-09-18 23:40:00,
2013-09-18 19:45:00,58.8,53.6,30.12,SSE,158,0.0,0.0,83,0.00,,,0.00,Wunderground v.1.13,2013-09-18 23:45:00,
2013-09-18 19:50:00,57.9,53.4,30.12,SSE,158,0.0,0.0,85,0.00,,,0.00,Wunderground v.1.13,2013-09-18 23:50:00,
2013-09-18 19:55:00,57.2,53.0,30.12,SSE,158,0.0,0.0,86,0.00,,,0.00,Wunderground v.1.13,2013-09-18 23:55:00,
2013-09-18 20:00:00,56.4,52.9,30.12,SSE,158,0.0,0.0,88,0.00,,,0.00,Wunderground v.1.13,2013-09-19 00:00:00,
2013-09-18 20:05:00,56.0,52.8,30.12,SSE,158,0.0,0.0,89,0.00,,,0.00,Wunderground v.1.13,2013-09-19 00:05:00,
2013-09-18 20:10:00,55.7,52.5,30.13,SSE,158,0.0,0.0,89,0.00,,,0.00,Wunderground v.1.13,2013-09-19 00:10:00,
2013-09-18 20:15:00,55.4,52.8,30.13,SSE,158,0.0,0.0,91,0.00,,,0.00,Wunderground v.1.13,2013-09-19 00:15:00,
2013-09-18 20:20:00,55.1,52.5,30.13,SSE,158,0.0,0.0,91,0.00,,,0.00,Wunderground v.1.13,2013-09-19 00:20:00,
2013-09-18 20:25:00,54.9,52.6,30.13,SSE,158,0.0,0.0,92,0.00,,,0.00,Wunderground v.1.13,2013-09-19 00:25:00,
2013-09-18 20:30:00,54.6,52.3,30.13,SSE,158,0.0,0.0,92,0.00,,,0.00,Wunderground v.1.13,2013-09-19 00:30:00,
2013-09-18 20:36:00,54.3,52.0,30.13,SSE,158,0.0,0.0,92,0.00,,,0.00,Wunderground v.1.13,2013-09-19 00:36:00,
2013-09-18 20:41:00,53.9,51.9,30.13,SSE,158,0.0,0.0,93,0.00,,,0.00,Wunderground v.1.13,2013-09-19 00:41:00,
2013-09-18 20:46:00,53.7,51.7,30.13,SSE,158,0.0,0.0,93,0.00,,,0.00,Wunderground v.1.13,2013-09-19 00:46:00,
2013-09-18 20:51:00,53.6,51.6,30.13,SSE,158,0.0,0.0,93,0.00,,,0.00,Wunderground v.1.13,2013-09-19 00:51:00,
2013-09-18 20:56:00,53.5,51.8,30.14,SSE,158,0.0,0.0,94,0.00,,,0.00,Wunderground v.1.13,2013-09-19 00:56:00,
2013-09-18 21:01:00,53.3,51.6,30.14,SSE,158,0.0,0.0,94,0.00,,,0.00,Wunderground v.1.13,2013-09-19 01:01:00,
2013-09-18 21:06:00,53.1,51.4,30.14,SSE,158,0.0,0.0,94,0.00,,,0.00,Wunderground v.1.13,2013-09-19 01:06:00,
2013-09-18 21:11:00,52.8,51.1,30.14,SSE,158,0.0,0.0,94,0.00,,,0.00,Wunderground v.1.13,2013-09-19 01:11:00,
2013-09-18 21:16:00,52.6,50.9,30.14,SSE,158,0.0,0.0,94,0.00,,,0.00,Wunderground v.1.13,2013-09-19 01:16:00,
2013-09-18 21:21:00,52.6,51.2,30.14,SSE,158,0.0,0.0,95,0.00,,,0.00,Wunderground v.1.13,2013-09-19 01:21:00,
2013-09-18 21:26:00,52.6,51.2,30.14,SSE,158,0.0,0.0,95,0.00,,,0.00,Wunderground v.1.13,2013-09-19 01:26:00,
2013-09-18 21:31:00,52.5,51.1,30.14,SSE,158,0.0,0.0,95,0.00,,,0.00,Wunderground v.1.13,2013-09-19 01:31:00,
2013-09-18 21:36:00,52.3,50.9,30.14,SSE,158,0.0,0.0,95,0.00,,,0.00,Wunderground v.1.13,2013-09-19 01:36:00,
2013-09-18 21:41:00,52.0,50.6,30.15,SSE,158,0.0,0.0,95,0.00,,,0.00,Wunderground v.1.13,2013-09-19 01:41:00,
2013-09-18 21:46:00,51.9,50.5,30.15,SSE,158,0.0,0.0,95,0.00,,,0.00,Wunderground v.1.13,2013-09-19 01:46:00,
2013-09-18 21:51:00,51.8,50.4,30.15,SSE,158,0.0,0.0,95,0.00,,,0.00,Wunderground v.1.13,2013-09-19 01:51:00,
2013-09-18 21:56:00,51.7,50.3,30.15,SSE,158,0.0,0.0,95,0.00,,,0.00,Wunderground v.1.13,2013-09-19 01:56:00,
2013-09-18 22:01:00,51.5,50.1,30.15,SSE,158,0.0,0.0,95,0.00,,,0.00,Wunderground v.1.13,2013-09-19 02:01:00,
2013-09-18 22:06:00,51.4,50.0,30.15,SSE,158,0.0,0.0,95,0.00,,,0.00,Wunderground v.1.13,2013-09-19 02:06:00,
2013-09-18 22:11:00,51.3,49.9,30.15,SSE,158,0.0,0.0,95,0.00,,,0.00,Wunderground v.1.13,2013-09-19 02:11:00,
2013-09-18 22:16:00,51.2,50.1,30.15,SSE,158,0.0,0.0,96,0.00,,,0.00,Wunderground v.1.13,2013-09-19 02:16:00,
2013-09-18 22:21:00,51.2,50.1,30.15,SSE,158,0.0,0.0,96,0.00,,,0.00,Wunderground v.1.13,2013-09-19 02:21:00,
2013-09-18 22:26:00,51.1,50.0,30.15,SSE,158,0.0,0.0,96,0.00,,,0.00,Wunderground v.1.13,2013-09-19 02:26:00,
2013-09-18 22:31:00,51.0,49.9,30.15,SSE,158,0.0,0.0,96,0.00,,,0.00,Wunderground v.1.13,2013-09-19 02:31:00,
2013-09-18 22:36:00,50.9,49.8,30.15,SSE,158,0.0,0.0,96,0.00,,,0.00,Wunderground v.1.13,2013-09-19 02:36:00,
2013-09-18 22:41:00,50.8,49.7,30.15,SSE,158,0.0,0.0,96,0.00,,,0.00,Wunderground v.1.13,2013-09-19 02:41:00,
2013-09-18 22:46:00,50.9,49.8,30.15,SSE,158,0.0,0.0,96,0.00,,,0.00,Wunderground v.1.13,2013-09-19 02:46:00,
2013-09-18 22:51:00,51.2,50.1,30.15,SSE,158,0.0,0.0,96,0.00,,,0.00,Wunderground v.1.13,2013-09-19 02:51:00,
2013-09-18 22:56:00,51.7,50.6,30.15,SSE,158,0.0,0.0,96,0.00,,,0.00,Wunderground v.1.13,2013-09-19 02:56:00,
2013-09-18 23:01:00,52.0,51.2,30.15,SSE,158,0.0,0.0,97,0.00,,,0.00,Wunderground v.1.13,2013-09-19 03:01:00,
2013-09-18 23:06:00,52.2,51.1,30.15,SSE,158,0.0,0.0,96,0.00,,,0.00,Wunderground v.1.13,2013-09-19 03:06:00,
2013-09-18 23:11:00,52.3,51.2,30.15,SSE,158,0.0,0.0,96,0.00,,,0.00,Wunderground v.1.13,2013-09-19 03:11:00,
2013-09-18 23:16:00,52.4,51.6,30.15,SSE,158,0.0,0.0,97,0.00,,,0.00,Wunderground v.1.13,2013-09-19 03:16:00,
2013-09-18 23:21:00,52.5,51.7,30.15,SSE,158,0.0,0.0,97,0.00,,,0.00,Wunderground v.1.13,2013-09-19 03:21:00,
2013-09-18 23:26:00,52.4,51.6,30.15,SSE,158,0.0,0.0,97,0.00,,,0.00,Wunderground v.1.13,2013-09-19 03:26:00,
2013-09-18 23:31:00,52.4,51.6,30.15,SSE,158,0.0,0.0,97,0.00,,,0.00,Wunderground v.1.13,2013-09-19 03:31:00,
2013-09-18 23:36:00,52.3,51.2,30.15,SSE,158,0.0,0.0,96,0.00,,,0.00,Wunderground v.1.13,2013-09-19 03:36:00,
2013-09-18 23:41:00,52.3,51.2,30.15,SSE,158,0.0,0.0,96,0.00,,,0.00,Wunderground v.1.13,2013-09-19 03:41:00,
2013-09-18 23:46:00,52.2,51.1,30.15,SSE,158,0.0,0.0,96,0.00,,,0.00,Wunderground v.1.13,2013-09-19 03:46:00,
2013-09-18 23:51:00,52.1,51.0,30.15,SSE,158,0.0,0.0,96,0.00,,,0.00,Wunderground v.1.13,2013-09-19 03:51:00,
2013-09-18 23:56:00,52.2,51.1,30.15,SSE,158,0.0,0.0,96,0.00,,,0.00,Wunderground v.1.13,2013-09-19 03:56:00,